sensor_id;sensor_type;location;lat;lon;timestamp;temperature;humidity
25140;DHT22;39015;48.106;-1.682;2023-03-01T06:05:25;10.90;58.10
25140;DHT22;39015;48.106;-1.682;2023-03-01T06:07:54;10.90;58.10
25140;DHT22;39015;48.106;-1.682;2023-03-01T06:10:22;10.90;58.10
25140;DHT22;39015;48.106;-1.682;2023-03-01T06:12:49;11.00;58.20
25140;DHT22;39015;48.106;-1.682;2023-03-01T06:15:17;10.90;58.00
25140;DHT22;39015;48.106;-1.682;2023-03-01T06:17:46;10.90;58.00
25140;DHT22;39015;48.106;-1.682;2023-03-01T06:20:14;10.90;58.00
25140;DHT22;39015;48.106;-1.682;2023-03-01T06:22:49;10.90;57.90
25140;DHT22;39015;48.106;-1.682;2023-03-01T06:25:18;10.90;58.00
25140;DHT22;39015;48.106;-1.682;2023-03-01T06:27:45;10.90;57.90
25140;DHT22;39015;48.106;-1.682;2023-03-01T06:30:15;10.90;58.00
25140;DHT22;39015;48.106;-1.682;2023-03-01T06:32:43;10.90;58.00
25140;DHT22;39015;48.106;-1.682;2023-03-01T06:35:11;10.90;58.00
25140;DHT22;39015;48.106;-1.682;2023-03-01T06:37:40;10.90;58.00
25140;DHT22;39015;48.106;-1.682;2023-03-01T06:40:11;10.90;58.00
25140;DHT22;39015;48.106;-1.682;2023-03-01T06:42:41;10.90;57.90
25140;DHT22;39015;48.106;-1.682;2023-03-01T06:45:09;10.90;57.80
25140;DHT22;39015;48.106;-1.682;2023-03-01T06:47:37;10.90;57.80
25140;DHT22;39015;48.106;-1.682;2023-03-01T06:50:04;10.80;57.80
25140;DHT22;39015;48.106;-1.682;2023-03-01T06:52:31;10.80;57.80
25140;DHT22;39015;48.106;-1.682;2023-03-01T06:54:58;10.80;57.80
25140;DHT22;39015;48.106;-1.682;2023-03-01T06:57:27;10.80;58.50
25140;DHT22;39015;48.106;-1.682;2023-03-01T06:59:54;10.80;57.70
25140;DHT22;39015;48.106;-1.682;2023-03-01T07:02:21;10.80;57.70
25140;DHT22;39015;48.106;-1.682;2023-03-01T07:04:49;10.80;57.70
25140;DHT22;39015;48.106;-1.682;2023-03-01T07:07:16;10.80;57.60
25140;DHT22;39015;48.106;-1.682;2023-03-01T07:09:45;10.80;57.60
25140;DHT22;39015;48.106;-1.682;2023-03-01T07:12:13;10.80;57.60
25140;DHT22;39015;48.106;-1.682;2023-03-01T07:14:41;10.80;57.60
25140;DHT22;39015;48.106;-1.682;2023-03-01T07:17:08;10.80;57.60
25140;DHT22;39015;48.106;-1.682;2023-03-01T07:19:35;10.80;57.60
25140;DHT22;39015;48.106;-1.682;2023-03-01T07:22:03;10.80;57.50
25140;DHT22;39015;48.106;-1.682;2023-03-01T07:24:33;10.80;57.50
25140;DHT22;39015;48.106;-1.682;2023-03-01T07:27:00;10.80;57.50
25140;DHT22;39015;48.106;-1.682;2023-03-01T07:29:27;10.70;57.50
25140;DHT22;39015;48.106;-1.682;2023-03-01T07:31:56;10.70;57.60
25140;DHT22;39015;48.106;-1.682;2023-03-01T07:34:24;10.70;57.60
25140;DHT22;39015;48.106;-1.682;2023-03-01T07:36:51;10.70;57.60
25140;DHT22;39015;48.106;-1.682;2023-03-01T07:39:18;10.70;57.60
25140;DHT22;39015;48.106;-1.682;2023-03-01T07:41:48;10.60;57.60
25140;DHT22;39015;48.106;-1.682;2023-03-01T07:44:15;10.60;57.60
25140;DHT22;39015;48.106;-1.682;2023-03-01T07:46:43;10.60;57.70
25140;DHT22;39015;48.106;-1.682;2023-03-01T07:49:11;10.60;57.80
25140;DHT22;39015;48.106;-1.682;2023-03-01T07:51:38;10.60;57.80
25140;DHT22;39015;48.106;-1.682;2023-03-01T07:54:05;10.60;57.80
25140;DHT22;39015;48.106;-1.682;2023-03-01T07:56:32;10.60;57.80
25140;DHT22;39015;48.106;-1.682;2023-03-01T07:59:00;10.60;57.80
25140;DHT22;39015;48.106;-1.682;2023-03-01T08:01:29;10.60;57.90
25140;DHT22;39015;48.106;-1.682;2023-03-01T08:03:56;10.60;57.90
25140;DHT22;39015;48.106;-1.682;2023-03-01T08:06:29;10.60;58.00
25140;DHT22;39015;48.106;-1.682;2023-03-01T08:08:57;10.60;58.00
25140;DHT22;39015;48.106;-1.682;2023-03-01T08:11:27;10.60;58.00
25140;DHT22;39015;48.106;-1.682;2023-03-01T08:13:56;10.60;58.00
25140;DHT22;39015;48.106;-1.682;2023-03-01T08:16:23;10.70;58.00
25140;DHT22;39015;48.106;-1.682;2023-03-01T08:18:50;10.70;57.90
25140;DHT22;39015;48.106;-1.682;2023-03-01T08:21:19;10.70;58.00
25140;DHT22;39015;48.106;-1.682;2023-03-01T08:23:47;10.70;57.90
25140;DHT22;39015;48.106;-1.682;2023-03-01T08:26:16;10.70;57.90
25140;DHT22;39015;48.106;-1.682;2023-03-01T08:28:44;10.70;57.90
25140;DHT22;39015;48.106;-1.682;2023-03-01T08:31:15;10.70;57.90
25140;DHT22;39015;48.106;-1.682;2023-03-01T08:33:43;10.70;58.10
25140;DHT22;39015;48.106;-1.682;2023-03-01T08:36:16;10.70;58.10
25140;DHT22;39015;48.106;-1.682;2023-03-01T08:38:49;10.70;58.00
25140;DHT22;39015;48.106;-1.682;2023-03-01T08:41:19;10.70;58.00
25140;DHT22;39015;48.106;-1.682;2023-03-01T08:43:48;10.70;58.00
25140;DHT22;39015;48.106;-1.682;2023-03-01T08:46:16;10.80;58.00
25140;DHT22;39015;48.106;-1.682;2023-03-01T08:48:43;10.80;57.90
25140;DHT22;39015;48.106;-1.682;2023-03-01T08:51:11;10.80;58.00
25140;DHT22;39015;48.106;-1.682;2023-03-01T08:53:41;10.80;57.90
25140;DHT22;39015;48.106;-1.682;2023-03-01T08:56:10;10.90;57.90
25140;DHT22;39015;48.106;-1.682;2023-03-01T08:58:37;10.90;57.80
25140;DHT22;39015;48.106;-1.682;2023-03-01T09:01:07;10.90;57.80
25140;DHT22;39015;48.106;-1.682;2023-03-01T09:03:34;11.00;57.80
25140;DHT22;39015;48.106;-1.682;2023-03-01T09:06:02;11.00;57.80
25140;DHT22;39015;48.106;-1.682;2023-03-01T09:08:34;11.00;57.80
25140;DHT22;39015;48.106;-1.682;2023-03-01T09:11:02;11.00;57.80
25140;DHT22;39015;48.106;-1.682;2023-03-01T09:13:36;11.00;58.50
25140;DHT22;39015;48.106;-1.682;2023-03-01T09:16:07;11.00;57.80
25140;DHT22;39015;48.106;-1.682;2023-03-01T09:18:35;11.10;57.80
25140;DHT22;39015;48.106;-1.682;2023-03-01T09:21:05;11.10;57.80
25140;DHT22;39015;48.106;-1.682;2023-03-01T09:23:34;11.10;57.90
25140;DHT22;39015;48.106;-1.682;2023-03-01T09:26:05;11.10;57.90
25140;DHT22;39015;48.106;-1.682;2023-03-01T09:28:32;11.10;57.90
25140;DHT22;39015;48.106;-1.682;2023-03-01T09:31:01;11.10;57.90
25140;DHT22;39015;48.106;-1.682;2023-03-01T09:33:32;11.10;57.90
25140;DHT22;39015;48.106;-1.682;2023-03-01T09:35:59;11.20;57.90
25140;DHT22;39015;48.106;-1.682;2023-03-01T09:38:27;11.20;58.70
25140;DHT22;39015;48.106;-1.682;2023-03-01T09:40:55;11.20;57.90
25140;DHT22;39015;48.106;-1.682;2023-03-01T09:43:29;11.30;57.90
25140;DHT22;39015;48.106;-1.682;2023-03-01T09:46:03;11.30;57.90
25140;DHT22;39015;48.106;-1.682;2023-03-01T09:48:41;11.30;57.90
25140;DHT22;39015;48.106;-1.682;2023-03-01T09:51:15;11.40;57.90
25140;DHT22;39015;48.106;-1.682;2023-03-01T09:53:44;11.40;57.90
25140;DHT22;39015;48.106;-1.682;2023-03-01T09:56:16;11.30;57.90
25140;DHT22;39015;48.106;-1.682;2023-03-01T09:58:51;11.40;57.90
25140;DHT22;39015;48.106;-1.682;2023-03-01T10:01:33;11.40;58.00
25140;DHT22;39015;48.106;-1.682;2023-03-01T10:04:16;11.40;58.00
25140;DHT22;39015;48.106;-1.682;2023-03-01T10:06:51;11.40;58.00
25140;DHT22;39015;48.106;-1.682;2023-03-01T10:09:21;11.40;58.00
25140;DHT22;39015;48.106;-1.682;2023-03-01T10:11:52;11.50;58.10
25140;DHT22;39015;48.106;-1.682;2023-03-01T10:14:29;11.40;58.10
25140;DHT22;39015;48.106;-1.682;2023-03-01T10:17:02;11.50;58.00
25140;DHT22;39015;48.106;-1.682;2023-03-01T10:19:32;11.50;58.00
25140;DHT22;39015;48.106;-1.682;2023-03-01T10:22:04;11.50;58.10
25140;DHT22;39015;48.106;-1.682;2023-03-01T10:24:34;11.50;58.10
25140;DHT22;39015;48.106;-1.682;2023-03-01T10:27:06;11.50;58.10
25140;DHT22;39015;48.106;-1.682;2023-03-01T10:29:39;11.60;58.20
25140;DHT22;39015;48.106;-1.682;2023-03-01T10:32:09;11.60;58.20
25140;DHT22;39015;48.106;-1.682;2023-03-01T10:34:37;11.60;58.20
25140;DHT22;39015;48.106;-1.682;2023-03-01T10:37:11;11.70;58.30
25140;DHT22;39015;48.106;-1.682;2023-03-01T10:39:58;11.60;58.20
25140;DHT22;39015;48.106;-1.682;2023-03-01T10:42:29;11.70;58.30
25140;DHT22;39015;48.106;-1.682;2023-03-01T10:44:57;11.70;58.30
25140;DHT22;39015;48.106;-1.682;2023-03-01T10:47:27;11.70;58.30
25140;DHT22;39015;48.106;-1.682;2023-03-01T10:49:57;11.70;58.30
25140;DHT22;39015;48.106;-1.682;2023-03-01T10:52:28;11.70;58.30
25140;DHT22;39015;48.106;-1.682;2023-03-01T10:54:58;11.70;58.30
25140;DHT22;39015;48.106;-1.682;2023-03-01T10:57:31;11.80;58.40
25140;DHT22;39015;48.106;-1.682;2023-03-01T11:00:18;11.80;58.30
25140;DHT22;39015;48.106;-1.682;2023-03-01T11:02:51;11.80;58.40
25140;DHT22;39015;48.106;-1.682;2023-03-01T11:05:22;11.80;58.40
25140;DHT22;39015;48.106;-1.682;2023-03-01T11:07:51;11.80;58.40
25140;DHT22;39015;48.106;-1.682;2023-03-01T11:10:22;11.90;58.50
25140;DHT22;39015;48.106;-1.682;2023-03-01T11:12:51;11.90;58.50
25140;DHT22;39015;48.106;-1.682;2023-03-01T11:15:27;11.90;58.50
25140;DHT22;39015;48.106;-1.682;2023-03-01T11:17:57;11.90;58.50
25140;DHT22;39015;48.106;-1.682;2023-03-01T11:20:27;12.00;58.50
25140;DHT22;39015;48.106;-1.682;2023-03-01T11:22:59;12.00;58.50
25140;DHT22;39015;48.106;-1.682;2023-03-01T11:25:31;12.00;58.50
25140;DHT22;39015;48.106;-1.682;2023-03-01T11:28:02;12.00;58.50
25140;DHT22;39015;48.106;-1.682;2023-03-01T11:30:34;12.10;58.50
25140;DHT22;39015;48.106;-1.682;2023-03-01T11:33:13;12.10;58.50
25140;DHT22;39015;48.106;-1.682;2023-03-01T11:35:53;12.10;58.50
25140;DHT22;39015;48.106;-1.682;2023-03-01T11:38:23;12.20;58.50
25140;DHT22;39015;48.106;-1.682;2023-03-01T11:40:55;12.20;58.50
25140;DHT22;39015;48.106;-1.682;2023-03-01T11:43:33;12.20;58.50
25140;DHT22;39015;48.106;-1.682;2023-03-01T11:46:36;12.20;58.50
25140;DHT22;39015;48.106;-1.682;2023-03-01T11:52:25;12.30;58.50
25140;DHT22;39015;48.106;-1.682;2023-03-01T11:55:12;12.30;58.50
25140;DHT22;39015;48.106;-1.682;2023-03-01T11:58:00;12.30;58.40
25140;DHT22;39015;48.106;-1.682;2023-03-01T12:00:37;12.30;58.30
25140;DHT22;39015;48.106;-1.682;2023-03-01T12:06:32;12.40;58.40
25140;DHT22;39015;48.106;-1.682;2023-03-01T12:09:15;12.40;58.40
25140;DHT22;39015;48.106;-1.682;2023-03-01T12:12:05;12.40;58.40
25140;DHT22;39015;48.106;-1.682;2023-03-01T12:14:45;12.50;58.40
25140;DHT22;39015;48.106;-1.682;2023-03-01T12:17:45;12.50;58.40
25140;DHT22;39015;48.106;-1.682;2023-03-01T12:20:28;12.50;58.40
25140;DHT22;39015;48.106;-1.682;2023-03-01T12:23:33;12.50;58.30
25140;DHT22;39015;48.106;-1.682;2023-03-01T12:26:13;12.50;58.40
25140;DHT22;39015;48.106;-1.682;2023-03-01T12:29:02;12.60;58.30
25140;DHT22;39015;48.106;-1.682;2023-03-01T12:32:15;12.60;58.30
25140;DHT22;39015;48.106;-1.682;2023-03-01T12:37:54;12.60;58.30
25140;DHT22;39015;48.106;-1.682;2023-03-01T12:40:50;12.70;58.40
25140;DHT22;39015;48.106;-1.682;2023-03-01T12:43:28;12.60;58.40
25140;DHT22;39015;48.106;-1.682;2023-03-01T12:46:18;12.70;58.50
25140;DHT22;39015;48.106;-1.682;2023-03-01T12:48:53;12.70;58.50
25140;DHT22;39015;48.106;-1.682;2023-03-01T12:51:26;12.70;58.50
25140;DHT22;39015;48.106;-1.682;2023-03-01T12:53:55;12.70;58.50
25140;DHT22;39015;48.106;-1.682;2023-03-01T12:56:27;12.70;58.50
25140;DHT22;39015;48.106;-1.682;2023-03-01T12:59:01;12.70;58.50
25140;DHT22;39015;48.106;-1.682;2023-03-01T13:01:39;12.70;58.50
25140;DHT22;39015;48.106;-1.682;2023-03-01T13:04:21;12.80;58.50
25140;DHT22;39015;48.106;-1.682;2023-03-01T13:06:58;12.80;58.50
25140;DHT22;39015;48.106;-1.682;2023-03-01T13:09:34;12.80;58.60
25140;DHT22;39015;48.106;-1.682;2023-03-01T13:12:14;12.80;58.60
25140;DHT22;39015;48.106;-1.682;2023-03-01T13:14:54;12.80;58.60
25140;DHT22;39015;48.106;-1.682;2023-03-01T13:17:42;12.80;58.60
25140;DHT22;39015;48.106;-1.682;2023-03-01T13:20:14;12.80;58.60
25140;DHT22;39015;48.106;-1.682;2023-03-01T13:22:42;12.80;58.60
25140;DHT22;39015;48.106;-1.682;2023-03-01T13:25:16;12.80;58.70
25140;DHT22;39015;48.106;-1.682;2023-03-01T13:27:47;12.80;58.80
25140;DHT22;39015;48.106;-1.682;2023-03-01T13:30:40;12.80;58.80
25140;DHT22;39015;48.106;-1.682;2023-03-01T13:33:33;12.80;58.80
25140;DHT22;39015;48.106;-1.682;2023-03-01T13:36:02;12.80;58.80
25140;DHT22;39015;48.106;-1.682;2023-03-01T13:38:45;12.80;58.80
25140;DHT22;39015;48.106;-1.682;2023-03-01T13:41:13;12.80;58.80
25140;DHT22;39015;48.106;-1.682;2023-03-01T13:43:43;12.80;58.90
25140;DHT22;39015;48.106;-1.682;2023-03-01T13:46:16;12.80;58.90
25140;DHT22;39015;48.106;-1.682;2023-03-01T13:48:48;12.80;58.90
25140;DHT22;39015;48.106;-1.682;2023-03-01T13:51:22;12.80;58.90
25140;DHT22;39015;48.106;-1.682;2023-03-01T13:53:51;12.80;58.90
25140;DHT22;39015;48.106;-1.682;2023-03-01T13:56:21;12.70;58.90
25140;DHT22;39015;48.106;-1.682;2023-03-01T13:58:53;12.80;59.00
25140;DHT22;39015;48.106;-1.682;2023-03-01T14:01:24;12.70;59.00
25140;DHT22;39015;48.106;-1.682;2023-03-01T14:03:52;12.70;59.00
25140;DHT22;39015;48.106;-1.682;2023-03-01T14:06:21;12.70;59.10
25140;DHT22;39015;48.106;-1.682;2023-03-01T14:08:52;12.70;59.10
25140;DHT22;39015;48.106;-1.682;2023-03-01T14:12:02;12.70;59.10
25140;DHT22;39015;48.106;-1.682;2023-03-01T14:14:42;12.70;59.10
25140;DHT22;39015;48.106;-1.682;2023-03-01T14:17:24;12.70;59.10
25140;DHT22;39015;48.106;-1.682;2023-03-01T14:19:56;12.70;59.10
25140;DHT22;39015;48.106;-1.682;2023-03-01T14:22:27;12.60;59.10
25140;DHT22;39015;48.106;-1.682;2023-03-01T14:24:56;12.60;59.10
25140;DHT22;39015;48.106;-1.682;2023-03-01T14:27:27;12.60;59.10
25140;DHT22;39015;48.106;-1.682;2023-03-01T14:29:57;12.60;59.10
25140;DHT22;39015;48.106;-1.682;2023-03-01T14:32:28;12.60;59.10
25140;DHT22;39015;48.106;-1.682;2023-03-01T14:34:58;12.60;59.10
25140;DHT22;39015;48.106;-1.682;2023-03-01T14:37:28;12.60;59.00
25140;DHT22;39015;48.106;-1.682;2023-03-01T14:39:57;12.60;59.00
25140;DHT22;39015;48.106;-1.682;2023-03-01T14:42:26;12.60;59.00
25140;DHT22;39015;48.106;-1.682;2023-03-01T14:44:57;12.70;59.00
25140;DHT22;39015;48.106;-1.682;2023-03-01T14:47:28;12.70;58.80
25140;DHT22;39015;48.106;-1.682;2023-03-01T14:49:59;12.70;58.80
25140;DHT22;39015;48.106;-1.682;2023-03-01T14:52:33;12.70;58.70
25140;DHT22;39015;48.106;-1.682;2023-03-01T14:55:04;12.70;58.70
25140;DHT22;39015;48.106;-1.682;2023-03-01T14:57:34;12.70;58.60
25140;DHT22;39015;48.106;-1.682;2023-03-01T15:00:07;12.70;58.60
25140;DHT22;39015;48.106;-1.682;2023-03-01T15:02:35;12.70;58.50
25140;DHT22;39015;48.106;-1.682;2023-03-01T15:05:06;12.70;58.50
25140;DHT22;39015;48.106;-1.682;2023-03-01T15:07:38;12.70;58.50
25140;DHT22;39015;48.106;-1.682;2023-03-01T15:10:12;12.70;58.40
25140;DHT22;39015;48.106;-1.682;2023-03-01T15:12:41;12.80;58.40
25140;DHT22;39015;48.106;-1.682;2023-03-01T15:15:32;12.70;58.40
25140;DHT22;39015;48.106;-1.682;2023-03-01T15:18:01;12.70;58.40
25140;DHT22;39015;48.106;-1.682;2023-03-01T15:20:30;12.70;58.30
25140;DHT22;39015;48.106;-1.682;2023-03-01T15:23:01;12.70;58.30
25140;DHT22;39015;48.106;-1.682;2023-03-01T15:25:30;12.70;58.40
25140;DHT22;39015;48.106;-1.682;2023-03-01T15:28:00;12.80;58.20
25140;DHT22;39015;48.106;-1.682;2023-03-01T15:30:30;12.80;58.30
25140;DHT22;39015;48.106;-1.682;2023-03-01T15:33:29;12.70;58.20
25140;DHT22;39015;48.106;-1.682;2023-03-01T15:35:58;12.70;58.20
25140;DHT22;39015;48.106;-1.682;2023-03-01T15:38:51;12.70;58.30
25140;DHT22;39015;48.106;-1.682;2023-03-01T15:41:25;12.70;58.30
25140;DHT22;39015;48.106;-1.682;2023-03-01T15:43:53;12.70;58.30
25140;DHT22;39015;48.106;-1.682;2023-03-01T15:46:27;12.70;58.20
25140;DHT22;39015;48.106;-1.682;2023-03-01T15:48:58;12.80;58.30
25140;DHT22;39015;48.106;-1.682;2023-03-01T15:51:34;12.70;58.30
25140;DHT22;39015;48.106;-1.682;2023-03-01T15:54:07;12.80;58.40
25140;DHT22;39015;48.106;-1.682;2023-03-01T15:56:38;12.70;58.40
25140;DHT22;39015;48.106;-1.682;2023-03-01T15:59:10;12.70;58.40
25140;DHT22;39015;48.106;-1.682;2023-03-01T16:01:39;12.80;58.50
25140;DHT22;39015;48.106;-1.682;2023-03-01T16:04:09;12.70;58.40
25140;DHT22;39015;48.106;-1.682;2023-03-01T16:06:38;12.80;58.50
25140;DHT22;39015;48.106;-1.682;2023-03-01T16:09:05;12.80;58.50
25140;DHT22;39015;48.106;-1.682;2023-03-01T16:11:32;12.80;58.50
25140;DHT22;39015;48.106;-1.682;2023-03-01T16:14:02;12.70;58.60
25140;DHT22;39015;48.106;-1.682;2023-03-01T16:16:32;12.80;58.70
25140;DHT22;39015;48.106;-1.682;2023-03-01T16:18:59;12.80;58.70
25140;DHT22;39015;48.106;-1.682;2023-03-01T16:21:27;12.80;58.60
25140;DHT22;39015;48.106;-1.682;2023-03-01T16:23:54;12.80;58.60
25140;DHT22;39015;48.106;-1.682;2023-03-01T16:26:21;12.80;58.60
25140;DHT22;39015;48.106;-1.682;2023-03-01T16:28:49;12.80;58.60
25140;DHT22;39015;48.106;-1.682;2023-03-01T16:31:18;12.80;58.60
25140;DHT22;39015;48.106;-1.682;2023-03-01T16:33:45;12.80;58.60
25140;DHT22;39015;48.106;-1.682;2023-03-01T16:36:16;12.80;58.60
25140;DHT22;39015;48.106;-1.682;2023-03-01T16:38:45;12.80;58.60
25140;DHT22;39015;48.106;-1.682;2023-03-01T16:41:15;12.80;58.60
25140;DHT22;39015;48.106;-1.682;2023-03-01T16:43:43;12.80;58.60
25140;DHT22;39015;48.106;-1.682;2023-03-01T16:46:11;12.80;58.70
25140;DHT22;39015;48.106;-1.682;2023-03-01T16:48:39;12.80;58.60
25140;DHT22;39015;48.106;-1.682;2023-03-01T16:51:07;12.80;58.60
25140;DHT22;39015;48.106;-1.682;2023-03-01T16:53:36;12.80;58.60
25140;DHT22;39015;48.106;-1.682;2023-03-01T16:56:06;12.80;58.50
25140;DHT22;39015;48.106;-1.682;2023-03-01T16:58:34;12.80;58.70
25140;DHT22;39015;48.106;-1.682;2023-03-01T17:01:06;12.80;58.60
25140;DHT22;39015;48.106;-1.682;2023-03-01T17:03:33;12.90;58.70
25140;DHT22;39015;48.106;-1.682;2023-03-01T17:06:05;12.80;58.60
25140;DHT22;39015;48.106;-1.682;2023-03-01T17:08:32;12.90;58.60
25140;DHT22;39015;48.106;-1.682;2023-03-01T17:11:05;12.90;58.60
25140;DHT22;39015;48.106;-1.682;2023-03-01T17:13:33;12.90;58.50
25140;DHT22;39015;48.106;-1.682;2023-03-01T17:16:03;12.90;58.50
25140;DHT22;39015;48.106;-1.682;2023-03-01T17:18:31;12.90;58.50
25140;DHT22;39015;48.106;-1.682;2023-03-01T17:20:59;13.00;58.50
25140;DHT22;39015;48.106;-1.682;2023-03-01T17:23:28;12.90;58.40
25140;DHT22;39015;48.106;-1.682;2023-03-01T17:25:55;13.00;58.40
25140;DHT22;39015;48.106;-1.682;2023-03-01T17:28:25;13.00;58.30
25140;DHT22;39015;48.106;-1.682;2023-03-01T17:30:53;13.00;58.30
25140;DHT22;39015;48.106;-1.682;2023-03-01T17:33:21;12.90;58.40
25140;DHT22;39015;48.106;-1.682;2023-03-01T17:35:49;13.00;58.40
25140;DHT22;39015;48.106;-1.682;2023-03-01T17:38:16;13.00;58.40
25140;DHT22;39015;48.106;-1.682;2023-03-01T17:40:44;13.00;58.30
25140;DHT22;39015;48.106;-1.682;2023-03-01T17:43:14;13.00;58.30
25140;DHT22;39015;48.106;-1.682;2023-03-01T17:45:46;13.00;58.30
25140;DHT22;39015;48.106;-1.682;2023-03-01T17:48:15;13.00;58.30
25140;DHT22;39015;48.106;-1.682;2023-03-01T17:50:42;13.00;58.20
25140;DHT22;39015;48.106;-1.682;2023-03-01T17:53:10;13.00;58.30
25140;DHT22;39015;48.106;-1.682;2023-03-01T17:55:38;13.00;58.20
25140;DHT22;39015;48.106;-1.682;2023-03-01T17:58:07;12.90;58.20
25140;DHT22;39015;48.106;-1.682;2023-03-01T18:00:35;13.00;58.20
25140;DHT22;39015;48.106;-1.682;2023-03-01T18:03:03;13.00;58.20
25140;DHT22;39015;48.106;-1.682;2023-03-01T18:05:31;12.90;58.20
25140;DHT22;39015;48.106;-1.682;2023-03-01T18:07:58;12.90;58.20
25140;DHT22;39015;48.106;-1.682;2023-03-01T18:10:26;12.90;58.10
25140;DHT22;39015;48.106;-1.682;2023-03-01T18:12:53;12.90;58.10
25140;DHT22;39015;48.106;-1.682;2023-03-01T18:15:25;12.90;58.10
25140;DHT22;39015;48.106;-1.682;2023-03-01T18:17:59;12.90;58.10
25140;DHT22;39015;48.106;-1.682;2023-03-01T18:20:37;12.90;58.10
25140;DHT22;39015;48.106;-1.682;2023-03-01T18:23:09;12.90;58.00
25140;DHT22;39015;48.106;-1.682;2023-03-01T18:25:39;13.00;58.10
25140;DHT22;39015;48.106;-1.682;2023-03-01T18:28:06;12.90;58.10
25140;DHT22;39015;48.106;-1.682;2023-03-01T18:30:34;12.90;58.10
25140;DHT22;39015;48.106;-1.682;2023-03-01T18:33:01;12.90;58.10
25140;DHT22;39015;48.106;-1.682;2023-03-01T18:35:28;12.90;58.10
25140;DHT22;39015;48.106;-1.682;2023-03-01T18:37:57;12.90;58.10
25140;DHT22;39015;48.106;-1.682;2023-03-01T18:40:25;12.90;58.10
25140;DHT22;39015;48.106;-1.682;2023-03-01T18:42:53;12.90;58.10
25140;DHT22;39015;48.106;-1.682;2023-03-01T18:45:20;12.90;58.20
25140;DHT22;39015;48.106;-1.682;2023-03-01T18:47:47;12.90;58.20
25140;DHT22;39015;48.106;-1.682;2023-03-01T18:50:14;12.90;58.20
25140;DHT22;39015;48.106;-1.682;2023-03-01T18:52:41;12.90;58.20
25140;DHT22;39015;48.106;-1.682;2023-03-01T18:55:10;12.90;58.20
25140;DHT22;39015;48.106;-1.682;2023-03-01T18:57:37;12.90;58.10
25140;DHT22;39015;48.106;-1.682;2023-03-01T19:00:05;12.90;58.20
25140;DHT22;39015;48.106;-1.682;2023-03-01T19:02:32;12.90;58.20
25140;DHT22;39015;48.106;-1.682;2023-03-01T19:04:59;12.90;58.20
25140;DHT22;39015;48.106;-1.682;2023-03-01T19:07:26;12.90;58.20
25140;DHT22;39015;48.106;-1.682;2023-03-01T19:09:53;12.90;58.10
25140;DHT22;39015;48.106;-1.682;2023-03-01T19:12:22;13.00;58.20
25140;DHT22;39015;48.106;-1.682;2023-03-01T19:14:49;12.90;58.10
25140;DHT22;39015;48.106;-1.682;2023-03-01T19:17:16;12.90;58.10
25140;DHT22;39015;48.106;-1.682;2023-03-01T19:19:44;13.00;58.10
25140;DHT22;39015;48.106;-1.682;2023-03-01T19:22:11;12.90;58.00
25140;DHT22;39015;48.106;-1.682;2023-03-01T19:24:38;13.00;58.10
25140;DHT22;39015;48.106;-1.682;2023-03-01T19:27:05;12.90;58.00
25140;DHT22;39015;48.106;-1.682;2023-03-01T19:29:34;12.90;58.00
25140;DHT22;39015;48.106;-1.682;2023-03-01T19:32:01;12.90;58.00
25140;DHT22;39015;48.106;-1.682;2023-03-01T19:34:28;12.90;58.00
25140;DHT22;39015;48.106;-1.682;2023-03-01T19:36:58;12.90;58.00
25140;DHT22;39015;48.106;-1.682;2023-03-01T19:39:25;12.90;58.00
25140;DHT22;39015;48.106;-1.682;2023-03-01T19:41:52;12.90;58.10
25140;DHT22;39015;48.106;-1.682;2023-03-01T19:44:19;12.90;58.10
25140;DHT22;39015;48.106;-1.682;2023-03-01T19:46:52;12.90;58.10
25140;DHT22;39015;48.106;-1.682;2023-03-01T19:49:19;12.90;58.80
25140;DHT22;39015;48.106;-1.682;2023-03-01T19:51:46;12.90;58.10
25140;DHT22;39015;48.106;-1.682;2023-03-01T19:54:13;12.80;58.10
25140;DHT22;39015;48.106;-1.682;2023-03-01T19:56:44;12.80;58.10
25140;DHT22;39015;48.106;-1.682;2023-03-01T19:59:12;12.80;58.10
25140;DHT22;39015;48.106;-1.682;2023-03-01T20:01:40;12.80;58.10
25140;DHT22;39015;48.106;-1.682;2023-03-01T20:04:09;12.80;58.20
25140;DHT22;39015;48.106;-1.682;2023-03-01T20:06:38;12.80;58.20
25140;DHT22;39015;48.106;-1.682;2023-03-01T20:09:07;12.80;58.20
25140;DHT22;39015;48.106;-1.682;2023-03-01T20:11:34;12.70;58.10
25140;DHT22;39015;48.106;-1.682;2023-03-01T20:14:01;12.70;58.10
25140;DHT22;39015;48.106;-1.682;2023-03-01T20:16:32;12.70;58.20
25140;DHT22;39015;48.106;-1.682;2023-03-01T20:18:59;12.70;58.20
25140;DHT22;39015;48.106;-1.682;2023-03-01T20:21:28;12.70;58.20
25140;DHT22;39015;48.106;-1.682;2023-03-01T20:23:55;12.70;58.20
25140;DHT22;39015;48.106;-1.682;2023-03-01T20:26:23;12.70;58.20
25140;DHT22;39015;48.106;-1.682;2023-03-01T20:28:53;12.70;58.20
25140;DHT22;39015;48.106;-1.682;2023-03-01T20:31:23;12.70;58.20
25140;DHT22;39015;48.106;-1.682;2023-03-01T20:33:54;12.70;58.30
25140;DHT22;39015;48.106;-1.682;2023-03-01T20:36:22;12.70;58.50
25140;DHT22;39015;48.106;-1.682;2023-03-01T20:38:52;12.70;58.40
25140;DHT22;39015;48.106;-1.682;2023-03-01T20:41:19;12.70;58.40
25140;DHT22;39015;48.106;-1.682;2023-03-01T20:43:50;12.70;58.30
25140;DHT22;39015;48.106;-1.682;2023-03-01T20:46:22;12.70;58.30
25140;DHT22;39015;48.106;-1.682;2023-03-01T20:48:50;12.70;58.20
25140;DHT22;39015;48.106;-1.682;2023-03-01T20:51:17;12.80;58.90
25140;DHT22;39015;48.106;-1.682;2023-03-01T20:53:44;12.80;58.20
25140;DHT22;39015;48.106;-1.682;2023-03-01T20:56:14;12.80;58.20
25140;DHT22;39015;48.106;-1.682;2023-03-01T20:58:41;12.80;58.20
25140;DHT22;39015;48.106;-1.682;2023-03-01T21:01:10;12.70;58.10
25140;DHT22;39015;48.106;-1.682;2023-03-01T21:03:37;12.80;58.10
25140;DHT22;39015;48.106;-1.682;2023-03-01T21:06:04;12.70;58.10
25140;DHT22;39015;48.106;-1.682;2023-03-01T21:08:33;12.70;58.10
